Port Aransas, Texas
Current Conditions -  °F | °C
As of 2:15 PM on Friday 31 Oct 2014 (Local Time) from KRAS Reporting Station
Scattered Clouds Scattered Clouds  
Wind Chill: 78°   Ceiling: Unl
Heat Index: 79°   Visibility: 10mi
Dew Point: 51°   Wind: 17mph
Humidity: 39%   Direction: 20°NNE
Pressure: 30.16"   Gusts: 23mph
Location:  27.83°N, 97.06°W
Report Text: KRAS 311915Z AUTO 02015G20KT 10SM SCT070 25/10 A3016 RMK AO2 T02540104
Loading
Personal Weather Stations






























Interactive Weather Map
Tropical Storm Tracking
New forecast layout! Learn more

10-Day Weather Forecast

Advertisements
Track Severe Weather on mobile